createdAt,value
2018-12-19T00:01:06.533Z,1.50
2018-12-19T00:03:35.864Z,1.90
2018-12-19T00:06:05.276Z,2.27
2018-12-19T00:08:34.539Z,2.03
2018-12-19T00:11:03.816Z,1.60
2018-12-19T00:13:33.043Z,1.63
2018-12-19T00:16:02.323Z,1.77
2018-12-19T00:18:31.611Z,2.27
2018-12-19T00:21:00.965Z,1.30
2018-12-19T00:23:29.834Z,1.53
2018-12-19T00:25:58.975Z,1.20
2018-12-19T00:28:27.846Z,1.77
2018-12-19T00:30:57.059Z,2.30
2018-12-19T00:33:26.312Z,2.02
2018-12-19T00:35:55.554Z,2.20
2018-12-19T00:38:24.805Z,2.00
2018-12-19T00:40:54.068Z,1.80
2018-12-19T00:43:23.340Z,2.57
2018-12-19T00:45:52.603Z,2.07
2018-12-19T00:48:21.514Z,1.70
2018-12-19T00:50:50.675Z,2.07
2018-12-19T00:53:20.467Z,2.30
2018-12-19T00:55:49.703Z,1.80
2018-12-19T00:58:18.567Z,2.33
2018-12-19T01:00:47.778Z,2.67
2018-12-19T01:03:17.019Z,2.20
2018-12-19T01:05:46.271Z,1.75
2018-12-19T01:08:15.516Z,2.10
2018-12-19T01:10:44.765Z,1.90
2018-12-19T01:13:16.125Z,2.00
2018-12-19T01:15:45.411Z,2.67
2018-12-19T01:18:15.831Z,2.37
2018-12-19T01:20:45.193Z,2.80
2018-12-19T01:23:14.411Z,2.07
2018-12-19T01:25:43.680Z,2.17
2018-12-19T01:28:12.987Z,1.93
2018-12-19T01:30:42.218Z,2.23
2018-12-19T01:33:11.452Z,2.10
2018-12-19T01:35:40.338Z,1.70
2018-12-19T01:38:09.480Z,2.37
2018-12-19T01:40:38.784Z,2.10
2018-12-19T01:43:08.059Z,2.20
2018-12-19T01:45:37.303Z,2.57
2018-12-19T01:48:06.615Z,2.50
2018-12-19T01:50:35.936Z,2.67
2018-12-19T01:53:05.275Z,2.50
2018-12-19T01:55:34.511Z,3.53
2018-12-19T01:58:03.763Z,2.70
2018-12-19T02:00:33.946Z,2.67
2018-12-19T02:03:03.217Z,2.02
2018-12-19T02:05:32.476Z,2.02
2018-12-19T02:08:01.732Z,3.00
2018-12-19T02:10:30.607Z,2.73
2018-12-19T02:12:59.752Z,2.10
2018-12-19T02:15:29.323Z,2.83
2018-12-19T02:17:58.258Z,2.70
2018-12-19T02:20:27.034Z,2.47
2018-12-19T02:22:56.180Z,3.10
2018-12-19T02:25:25.078Z,2.75
2018-12-19T02:27:54.259Z,2.57
2018-12-19T02:30:23.528Z,2.20
2018-12-19T02:32:52.779Z,2.17
2018-12-19T02:35:21.687Z,2.63
2018-12-19T02:37:50.836Z,2.20
2018-12-19T02:40:20.510Z,2.70
2018-12-19T02:42:49.763Z,3.27
2018-12-19T02:45:19.144Z,1.87
2018-12-19T02:47:48.388Z,2.83
2018-12-19T02:50:17.632Z,2.83
2018-12-19T02:52:46.873Z,2.67
2018-12-19T02:55:16.173Z,2.80
2018-12-19T02:57:45.415Z,3.23
2018-12-19T03:00:14.660Z,2.90
2018-12-19T03:02:44.039Z,2.60
2018-12-19T03:05:13.427Z,2.23
2018-12-19T03:07:42.767Z,2.40
2018-12-19T03:10:11.674Z,2.37
2018-12-19T03:12:41.160Z,2.27
2018-12-19T03:15:10.403Z,2.03
2018-12-19T03:17:39.635Z,3.30
2018-12-19T03:20:09.115Z,2.97
2018-12-19T03:22:38.338Z,3.03
2018-12-19T03:25:07.644Z,2.80
2018-12-19T03:27:36.915Z,2.83
2018-12-19T03:30:06.537Z,2.30
2018-12-19T03:32:35.771Z,2.83
2018-12-19T03:35:05.230Z,3.13
2018-12-19T03:37:34.535Z,2.83
2018-12-19T03:40:04.636Z,3.13
2018-12-19T03:42:33.924Z,2.40
2018-12-19T03:45:03.240Z,3.17
2018-12-19T03:47:32.467Z,3.03
2018-12-19T03:50:01.959Z,2.90
2018-12-19T03:52:31.244Z,2.57
2018-12-19T03:55:00.114Z,2.83
2018-12-19T03:57:29.564Z,2.53
2018-12-19T03:59:58.825Z,3.57
2018-12-19T04:02:28.164Z,3.05
2018-12-19T04:05:00.296Z,3.23
2018-12-19T04:07:29.562Z,2.60
2018-12-19T04:09:58.811Z,3.20
2018-12-19T04:12:28.044Z,2.70
2018-12-19T04:14:57.839Z,2.93
2018-12-19T04:17:27.196Z,2.50
2018-12-19T04:19:56.447Z,3.50
2018-12-19T04:22:25.783Z,4.67
2018-12-19T04:24:54.647Z,2.73
2018-12-19T04:27:23.824Z,2.50
2018-12-19T04:29:52.882Z,2.70
2018-12-19T04:32:22.387Z,2.80
2018-12-19T04:34:51.631Z,2.73
2018-12-19T04:37:20.897Z,2.60
2018-12-19T04:39:50.150Z,2.70
2018-12-19T04:42:20.377Z,2.97
2018-12-19T04:44:49.254Z,2.87
2018-12-19T04:47:18.433Z,2.20
2018-12-19T04:49:47.691Z,2.53
2018-12-19T04:52:16.926Z,2.53
2018-12-19T04:54:45.839Z,2.87
2018-12-19T04:57:15.122Z,3.83
2018-12-19T04:59:44.359Z,3.37
2018-12-19T05:02:13.611Z,4.20
2018-12-19T05:04:42.878Z,2.33
2018-12-19T05:07:11.823Z,2.17
2018-12-19T05:09:41.013Z,2.40
2018-12-19T05:12:10.549Z,2.50
2018-12-19T05:14:40.051Z,2.80
2018-12-19T05:17:09.791Z,2.53
2018-12-19T05:19:39.211Z,2.90
2018-12-19T05:22:08.475Z,2.47
2018-12-19T05:24:37.822Z,2.67
2018-12-19T05:27:07.083Z,3.47
2018-12-19T05:29:35.972Z,2.07
2018-12-19T05:32:05.147Z,2.20
2018-12-19T05:34:34.062Z,2.72
2018-12-19T05:37:03.310Z,2.50
2018-12-19T05:39:32.163Z,2.50
2018-12-19T05:42:01.390Z,3.40
2018-12-19T05:44:30.656Z,3.15
2018-12-19T05:47:00.014Z,2.43
2018-12-19T05:49:29.288Z,3.05
2018-12-19T05:51:58.532Z,2.43
2018-12-19T05:54:27.436Z,2.37
2018-12-19T05:56:56.593Z,3.40
2018-12-19T05:59:25.831Z,2.47
2018-12-19T06:01:55.071Z,2.87
2018-12-19T06:04:24.334Z,3.60
2018-12-19T06:06:53.238Z,2.20
2018-12-19T06:09:22.014Z,2.07
2018-12-19T06:11:51.223Z,2.90
2018-12-19T06:14:20.482Z,2.23
2018-12-19T06:16:49.631Z,2.17
2018-12-19T06:19:19.006Z,3.50
2018-12-19T06:21:48.548Z,1.83
2018-12-19T06:24:17.830Z,2.57
2018-12-19T06:26:47.079Z,3.00
2018-12-19T06:29:16.323Z,2.67
2018-12-19T06:31:45.596Z,2.70
2018-12-19T06:34:14.475Z,3.17
2018-12-19T06:36:43.747Z,2.67
2018-12-19T06:39:13.046Z,3.57
2018-12-19T06:41:41.911Z,2.77
2018-12-19T06:44:11.080Z,1.97
2018-12-19T06:46:40.372Z,4.10
2018-12-19T06:49:09.671Z,3.50
2018-12-19T06:51:38.960Z,2.60
2018-12-19T06:54:07.846Z,2.22
2018-12-19T06:56:36.619Z,3.07
2018-12-19T06:59:05.779Z,3.20
2018-12-19T07:01:35.026Z,2.20
2018-12-19T07:04:04.330Z,2.47
2018-12-19T07:06:33.210Z,2.10
2018-12-19T07:09:02.498Z,3.70
2018-12-19T07:11:31.378Z,2.30
2018-12-19T07:14:00.595Z,2.63
2018-12-19T07:16:29.995Z,3.37
2018-12-19T07:18:59.289Z,2.70
2018-12-19T07:21:28.655Z,2.13
2018-12-19T07:23:57.558Z,2.53
2018-12-19T07:26:26.394Z,2.80
2018-12-19T07:28:55.599Z,2.50
2018-12-19T07:31:24.843Z,1.90
2018-12-19T07:33:53.775Z,1.10
2018-12-19T07:36:22.591Z,1.83
2018-12-19T07:38:51.773Z,0.90
2018-12-19T07:41:21.011Z,1.27
2018-12-19T07:43:50.273Z,1.50
2018-12-19T07:46:20.092Z,0.93
2018-12-19T07:48:49.439Z,1.03
2018-12-19T07:51:19.245Z,0.87
2018-12-19T07:53:48.030Z,2.93
2018-12-19T07:56:17.461Z,1.67
2018-12-19T07:58:46.747Z,2.10
2018-12-19T08:01:17.390Z,2.00
2018-12-19T08:03:46.402Z,1.43
2018-12-19T08:06:15.573Z,1.63
2018-12-19T08:08:44.478Z,1.30
2018-12-19T08:11:13.656Z,1.70
2018-12-19T08:13:42.590Z,2.27
2018-12-19T08:16:11.862Z,1.97
2018-12-19T08:18:41.098Z,2.17
2018-12-19T08:21:10.387Z,2.13
2018-12-19T08:23:39.631Z,4.40
2018-12-19T08:26:08.879Z,1.97
2018-12-19T08:28:39.296Z,1.63
2018-12-19T08:31:08.691Z,1.40
2018-12-19T08:33:37.940Z,2.23
2018-12-19T08:36:07.288Z,2.10
2018-12-19T08:38:36.511Z,2.10
2018-12-19T08:41:05.468Z,2.33
2018-12-19T08:43:34.623Z,1.60
2018-12-19T08:46:03.511Z,0.83
2018-12-19T08:48:32.380Z,0.90
2018-12-19T08:51:01.631Z,1.50
2018-12-19T08:53:31.037Z,2.23
2018-12-19T08:56:00.286Z,1.90
2018-12-19T08:58:29.511Z,2.00
2018-12-19T09:00:58.825Z,1.40
2018-12-19T09:03:28.158Z,1.67
2018-12-19T09:05:57.007Z,1.22
2018-12-19T09:08:25.868Z,0.98
2018-12-19T09:10:55.279Z,2.77
2018-12-19T09:13:24.290Z,1.10
2018-12-19T09:15:53.451Z,1.57
2018-12-19T09:18:22.366Z,0.93
2018-12-19T09:20:51.621Z,1.20
2018-12-19T09:23:20.883Z,1.30
2018-12-19T09:25:50.223Z,1.30
2018-12-19T09:28:19.502Z,2.00
2018-12-19T09:30:48.799Z,1.57
2018-12-19T09:33:18.607Z,1.40
2018-12-19T09:35:47.443Z,1.40
2018-12-19T09:38:16.216Z,1.83
2018-12-19T09:40:45.416Z,1.23
2018-12-19T09:43:14.674Z,1.27
2018-12-19T09:45:43.562Z,1.17
2018-12-19T09:48:12.998Z,1.40
2018-12-19T09:50:41.899Z,1.10
2018-12-19T09:53:11.275Z,1.27
2018-12-19T09:55:40.504Z,0.90
2018-12-19T09:58:09.368Z,1.00
2018-12-19T10:00:38.581Z,1.37
2018-12-19T10:03:07.455Z,1.37
2018-12-19T10:05:36.595Z,1.27
2018-12-19T10:08:05.490Z,1.10
2018-12-19T10:10:34.646Z,1.60
2018-12-19T10:13:04.179Z,1.43
2018-12-19T10:15:33.062Z,1.57
2018-12-19T10:18:02.227Z,1.30
2018-12-19T10:20:31.149Z,1.27
2018-12-19T10:23:00.303Z,1.10
2018-12-19T10:25:29.555Z,0.77
2018-12-19T10:27:58.803Z,0.90
2018-12-19T10:30:27.752Z,1.37
2018-12-19T10:32:57.143Z,1.10
2018-12-19T10:35:26.218Z,1.10
2018-12-19T10:37:55.375Z,0.80
2018-12-19T10:40:24.685Z,0.70
2018-12-19T10:42:53.975Z,0.93
2018-12-19T10:45:22.932Z,1.63
2018-12-19T10:47:51.711Z,1.00
2018-12-19T10:50:21.165Z,1.17
2018-12-19T10:52:50.696Z,0.97
2018-12-19T10:55:19.995Z,1.30
2018-12-19T10:57:49.147Z,1.33
2018-12-19T11:00:23.762Z,0.90
2018-12-19T11:02:52.928Z,2.40
2018-12-19T11:05:23.031Z,1.67
2018-12-19T11:07:51.896Z,1.42
2018-12-19T11:10:21.354Z,1.43
2018-12-19T11:12:50.259Z,1.20
2018-12-19T11:15:20.144Z,0.80
2018-12-19T11:17:49.451Z,1.33
2018-12-19T11:20:18.387Z,1.60
2018-12-19T11:22:47.574Z,1.27
2018-12-19T11:25:16.478Z,1.37
2018-12-19T11:27:45.350Z,1.27
2018-12-19T11:30:14.242Z,1.37
2018-12-19T11:32:43.026Z,0.80
2018-12-19T11:35:11.815Z,1.33
2018-12-19T11:37:41.017Z,1.60
2018-12-19T11:40:10.324Z,1.23
2018-12-19T11:42:39.310Z,1.70
2018-12-19T11:45:08.827Z,1.73
2018-12-19T11:47:38.102Z,1.05
2018-12-19T11:50:08.674Z,0.97
2018-12-19T11:52:37.678Z,1.13
2018-12-19T11:55:06.510Z,1.17
2018-12-19T11:57:35.398Z,1.07
2018-12-19T12:00:06.495Z,1.10
2018-12-19T12:02:35.924Z,1.23
2018-12-19T12:05:05.053Z,1.63
2018-12-19T12:07:34.244Z,1.00
2018-12-19T12:10:03.567Z,1.17
2018-12-19T12:12:32.443Z,1.35
2018-12-19T12:15:01.668Z,1.77
2018-12-19T12:17:30.927Z,1.20
2018-12-19T12:20:00.215Z,1.23
2018-12-19T12:22:29.140Z,1.52
2018-12-19T12:24:57.996Z,1.33
2018-12-19T12:27:27.195Z,0.70
2018-12-19T12:29:56.547Z,1.00
2018-12-19T12:32:25.458Z,1.40
2018-12-19T12:34:54.306Z,1.30
2018-12-19T12:37:23.139Z,1.43
2018-12-19T12:39:52.461Z,2.00
2018-12-19T12:42:21.720Z,3.07
2018-12-19T12:44:51.337Z,1.63
2018-12-19T12:47:21.170Z,1.40
2018-12-19T12:49:50.538Z,2.27
2018-12-19T12:52:20.402Z,2.07
2018-12-19T12:54:49.295Z,1.67
2018-12-19T12:57:18.460Z,1.20
2018-12-19T12:59:47.743Z,1.47
2018-12-19T13:02:16.642Z,1.53
2018-12-19T13:04:46.121Z,1.60
2018-12-19T13:07:14.927Z,1.10
2018-12-19T13:09:44.078Z,1.27
2018-12-19T13:12:13.365Z,1.27
2018-12-19T13:14:42.287Z,1.47
2018-12-19T13:17:11.472Z,1.20
2018-12-19T13:19:40.854Z,1.77
2018-12-19T13:22:09.725Z,2.00
2018-12-19T13:24:38.864Z,1.90
2018-12-19T13:27:08.240Z,1.70
2018-12-19T13:29:37.644Z,1.53
2018-12-19T13:32:07.020Z,1.00
2018-12-19T13:34:36.273Z,1.53
2018-12-19T13:37:05.563Z,1.10
2018-12-19T13:39:34.948Z,1.80
2018-12-19T13:42:05.749Z,0.93
2018-12-19T13:44:34.652Z,1.10
2018-12-19T13:47:03.507Z,1.30
2018-12-19T13:49:32.635Z,1.00
2018-12-19T13:52:01.922Z,1.13
2018-12-19T13:54:30.799Z,1.00
2018-12-19T13:56:59.995Z,1.27
2018-12-19T13:59:28.871Z,1.17
2018-12-19T14:01:58.451Z,0.90
2018-12-19T14:04:27.639Z,1.37
2018-12-19T14:06:57.480Z,1.70
2018-12-19T14:09:26.759Z,0.90
2018-12-19T14:11:55.987Z,0.83
2018-12-19T14:14:24.862Z,0.80
2018-12-19T14:16:54.102Z,0.80
2018-12-19T14:19:23.023Z,0.63
2018-12-19T14:21:51.836Z,1.00
2018-12-19T14:24:20.614Z,0.63
2018-12-19T14:26:49.403Z,0.70
2018-12-19T14:29:19.054Z,0.80
2018-12-19T14:31:48.202Z,0.70
2018-12-19T14:34:17.067Z,1.10
2018-12-19T14:36:45.881Z,0.90
2018-12-19T14:39:15.192Z,0.70
2018-12-19T14:41:44.011Z,0.80
2018-12-19T14:44:13.195Z,0.50
2018-12-19T14:46:42.077Z,0.90
2018-12-19T14:49:13.934Z,0.80
2018-12-19T14:51:41.687Z,2.20
2018-12-19T14:54:10.458Z,2.10
2018-12-19T14:56:39.319Z,2.40
2018-12-19T14:59:08.558Z,3.47
2018-12-19T15:01:37.455Z,2.47
2018-12-19T15:04:07.075Z,2.47
2018-12-19T15:06:35.882Z,3.37
2018-12-19T15:09:06.423Z,2.17
2018-12-19T15:11:35.265Z,2.62
2018-12-19T15:14:04.417Z,2.33
2018-12-19T15:16:33.315Z,3.30
2018-12-19T15:19:02.285Z,3.30
2018-12-19T15:21:31.089Z,3.13
2018-12-19T15:23:59.878Z,3.27
2018-12-19T15:26:29.076Z,3.05
2018-12-19T15:28:58.377Z,2.60
2018-12-19T15:31:28.384Z,2.83
2018-12-19T15:33:57.262Z,2.43
2018-12-19T15:36:26.328Z,3.52
2018-12-19T15:38:55.532Z,2.73
2018-12-19T15:41:24.431Z,2.30
2018-12-19T15:43:53.604Z,2.70
2018-12-19T15:46:22.510Z,3.03
2018-12-19T15:48:51.368Z,2.67
2018-12-19T15:51:20.147Z,2.97
2018-12-19T15:53:48.946Z,2.60
2018-12-19T15:56:17.722Z,3.20
2018-12-19T15:58:46.548Z,2.13
2018-12-19T16:01:15.714Z,2.37
2018-12-19T16:03:44.619Z,1.10
2018-12-19T16:06:13.455Z,2.17
2018-12-19T16:08:42.725Z,2.07
2018-12-19T16:11:11.956Z,1.70
2018-12-19T16:13:40.995Z,1.77
2018-12-19T16:16:10.298Z,1.27
2018-12-19T16:18:39.579Z,1.65
2018-12-19T16:21:08.831Z,1.50
2018-12-19T16:23:38.071Z,1.03
2018-12-19T16:26:06.966Z,1.77
2018-12-19T16:28:35.815Z,2.22
2018-12-19T16:31:04.590Z,1.00
2018-12-19T16:33:33.854Z,0.87
2018-12-19T16:36:03.024Z,1.30
2018-12-19T16:38:32.580Z,0.57
2018-12-19T16:41:01.454Z,0.53
2018-12-19T16:43:30.258Z,1.20
2018-12-19T16:45:59.424Z,1.13
2018-12-19T16:48:28.739Z,0.82
2018-12-19T16:50:57.606Z,1.07
2018-12-19T16:53:26.812Z,0.90
2018-12-19T16:55:56.048Z,0.70
2018-12-19T16:58:25.176Z,0.90
2018-12-19T17:00:54.381Z,1.20
2018-12-19T17:03:23.282Z,1.00
2018-12-19T17:05:52.445Z,1.83
2018-12-19T17:08:21.314Z,2.07
2018-12-19T17:10:50.935Z,2.17
2018-12-19T17:13:20.184Z,1.20
2018-12-19T17:15:49.083Z,1.60
2018-12-19T17:18:19.074Z,1.40
2018-12-19T17:20:48.335Z,1.20
2018-12-19T17:23:17.594Z,1.23
2018-12-19T17:25:47.751Z,1.77
2018-12-19T17:28:16.742Z,1.40
2018-12-19T17:30:45.538Z,1.23
2018-12-19T17:33:14.335Z,1.00
2018-12-19T17:35:43.118Z,1.00
2018-12-19T17:38:12.123Z,1.13
2018-12-19T17:40:41.400Z,1.30
2018-12-19T17:43:10.706Z,0.73
2018-12-19T17:45:39.952Z,1.77
2018-12-19T17:48:09.491Z,1.60
2018-12-19T17:50:38.394Z,1.30
2018-12-19T17:53:07.220Z,1.50
2018-12-19T17:55:36.408Z,1.83
2018-12-19T17:58:05.347Z,1.10
2018-12-19T18:00:34.186Z,2.57
2018-12-19T18:03:03.098Z,1.43
2018-12-19T18:05:31.949Z,1.73
2018-12-19T18:08:00.775Z,1.63
2018-12-19T18:10:29.623Z,1.67
2018-12-19T18:12:58.424Z,1.90
2018-12-19T18:15:27.222Z,2.85
2018-12-19T18:17:56.501Z,2.17
2018-12-19T18:20:25.420Z,1.70
2018-12-19T18:22:54.649Z,1.50
2018-12-19T18:25:23.555Z,1.52
2018-12-19T18:27:52.839Z,1.70
2018-12-19T18:30:22.086Z,1.97
2018-12-19T18:32:50.971Z,2.50
2018-12-19T18:35:19.851Z,1.67
2018-12-19T18:37:48.663Z,2.23
2018-12-19T18:40:17.831Z,1.70
2018-12-19T18:42:47.148Z,1.27
2018-12-19T18:45:16.037Z,1.60
2018-12-19T18:47:44.837Z,1.80
2018-12-19T18:50:14.015Z,1.83
2018-12-19T18:52:43.316Z,1.77
2018-12-19T18:55:12.187Z,2.33
2018-12-19T18:57:41.356Z,2.07
2018-12-19T19:00:11.052Z,1.90
2018-12-19T19:02:40.026Z,2.03
2018-12-19T19:05:08.844Z,1.60
2018-12-19T19:07:38.141Z,1.80
2018-12-19T19:10:07.214Z,1.60
2018-12-19T19:12:36.084Z,1.90
2018-12-19T19:15:05.883Z,1.83
2018-12-19T19:17:34.826Z,1.53
2018-12-19T19:20:03.934Z,2.40
2018-12-19T19:22:32.780Z,1.67
2018-12-19T19:25:01.940Z,1.50
2018-12-19T19:27:30.969Z,1.70
2018-12-19T19:30:00.161Z,1.77
2018-12-19T19:32:29.400Z,1.47
2018-12-19T19:34:58.320Z,2.23
2018-12-19T19:37:27.602Z,1.70
2018-12-19T19:39:56.958Z,2.37
2018-12-19T19:42:25.854Z,1.70
2018-12-19T19:44:54.788Z,1.77
2018-12-19T19:47:24.071Z,2.20
2018-12-19T19:49:52.918Z,1.73
2018-12-19T19:52:22.255Z,2.27
2018-12-19T19:54:51.127Z,2.20
2018-12-19T19:57:20.513Z,2.20
2018-12-19T19:59:49.333Z,2.07
2018-12-19T20:02:18.545Z,2.33
2018-12-19T20:04:47.506Z,2.30
2018-12-19T20:07:16.275Z,2.20
2018-12-19T20:09:45.106Z,2.10
2018-12-19T20:12:14.368Z,2.40
2018-12-19T20:14:43.238Z,2.70
2018-12-19T20:17:16.310Z,2.50
2018-12-19T20:19:45.093Z,2.40
2018-12-19T20:22:14.288Z,2.30
2018-12-19T20:24:44.312Z,2.17
2018-12-19T20:27:13.682Z,2.30
2018-12-19T20:29:42.614Z,3.17
2018-12-19T20:32:11.849Z,2.37
2018-12-19T20:34:40.754Z,2.17
2018-12-19T20:37:09.971Z,2.07
2018-12-19T20:39:38.877Z,2.47
2018-12-19T20:42:07.756Z,3.10
2018-12-19T20:44:36.577Z,2.40
2018-12-19T20:47:05.453Z,2.40
2018-12-19T20:49:34.623Z,2.52
2018-12-19T20:52:03.947Z,2.37
2018-12-19T20:54:33.321Z,2.93
2018-12-19T20:57:02.382Z,1.40
2018-12-19T20:59:31.643Z,1.25
2018-12-19T21:02:01.487Z,1.13
2018-12-19T21:04:30.668Z,0.90
2018-12-19T21:06:59.555Z,1.00
2018-12-19T21:09:28.739Z,1.20
2018-12-19T21:11:58.052Z,1.17
2018-12-19T21:14:27.003Z,1.17
2018-12-19T21:17:01.076Z,1.50
2018-12-19T21:19:30.434Z,1.70
2018-12-19T21:21:59.382Z,1.80
2018-12-19T21:24:28.531Z,2.07
2018-12-19T21:26:57.847Z,1.87
2018-12-19T21:29:26.814Z,1.50
2018-12-19T21:31:56.035Z,1.63
2018-12-19T21:34:24.926Z,1.00
2018-12-19T21:36:53.778Z,1.10
2018-12-19T21:39:22.643Z,1.87
2018-12-19T21:41:51.960Z,2.20
2018-12-19T21:44:21.276Z,1.80
2018-12-19T21:46:50.246Z,1.83
2018-12-19T21:49:19.667Z,2.33
2018-12-19T21:51:49.002Z,1.53
2018-12-19T21:54:17.886Z,3.70
2018-12-19T21:56:46.781Z,2.30
2018-12-19T21:59:16.473Z,1.70
2018-12-19T22:01:45.767Z,2.90
2018-12-19T22:04:14.650Z,2.07
2018-12-19T22:06:43.852Z,2.00
2018-12-19T22:09:13.401Z,2.57
2018-12-19T22:11:42.771Z,2.00
2018-12-19T22:14:11.738Z,2.47
2018-12-19T22:16:46.244Z,2.10
2018-12-19T22:19:15.174Z,2.07
2018-12-19T22:21:44.021Z,2.27
2018-12-19T22:24:13.227Z,1.70
2018-12-19T22:26:42.169Z,2.07
2018-12-19T22:29:11.340Z,1.30
2018-12-19T22:31:40.663Z,1.83
2018-12-19T22:34:09.943Z,1.93
2018-12-19T22:36:39.272Z,1.70
2018-12-19T22:39:13.783Z,1.93
2018-12-19T22:41:43.051Z,1.93
2018-12-19T22:44:12.440Z,2.77
2018-12-19T22:46:41.767Z,1.53
2018-12-19T22:49:11.014Z,1.30
2018-12-19T22:51:40.490Z,1.97
2018-12-19T22:54:09.934Z,1.52
2018-12-19T22:56:39.215Z,2.10
2018-12-19T22:59:08.509Z,2.87
2018-12-19T23:01:43.303Z,2.02
2018-12-19T23:04:12.634Z,2.00
2018-12-19T23:06:42.015Z,1.65
2018-12-19T23:09:11.304Z,1.43
2018-12-19T23:11:40.800Z,1.33
2018-12-19T23:14:15.286Z,0.90
2018-12-19T23:16:41.311Z,1.17
2018-12-19T23:19:10.600Z,0.90
2018-12-19T23:21:39.941Z,1.23
2018-12-19T23:24:09.508Z,1.23
2018-12-19T23:26:38.848Z,0.42
2018-12-19T23:29:08.077Z,0.97
2018-12-19T23:31:37.489Z,1.17
2018-12-19T23:34:06.815Z,1.37
2018-12-19T23:36:36.038Z,1.80
2018-12-19T23:39:07.808Z,2.13
2018-12-19T23:41:36.819Z,2.30
2018-12-19T23:44:06.029Z,2.13
2018-12-19T23:46:35.325Z,2.10
2018-12-19T23:49:04.802Z,2.03
2018-12-19T23:51:34.091Z,1.80
2018-12-19T23:54:03.717Z,2.43
2018-12-19T23:56:33.075Z,2.27
2018-12-19T23:59:02.414Z,2.23
